Daniel, Wyoming
Current Conditions -  °F | °C
As of 2:15 PM on Sunday 23 Nov 2014 (Local Time) from KPNA Reporting Station
Clear Clear  
Wind Chill: 11°   Ceiling: Unl
Heat Index: 27°   Visibility: 10mi
Dew Point: 14°   Wind: 25mph
Humidity: 59%   Direction: 300°WNW
Pressure: 29.99"   Gusts: 36mph
Location:  42.86°N, 110.07°W
Report Text: KPNA 232115Z AUTO 30022G31KT 10SM CLR M03/M10 A2999 RMK AO2
Loading
Personal Weather Stations






























Interactive Weather Map New forecast layout! Learn more

10-Day Weather Forecast

Advertisements
Track Severe Weather on mobile